sensor_id;sensor_type;location;lat;lon;timestamp;temperature;humidity
21807;DHT22;11065;50.786;7.840;2023-02-28T00:01:34;2.30;38.80
21807;DHT22;11065;50.786;7.840;2023-02-28T00:04:02;2.30;38.90
21807;DHT22;11065;50.786;7.840;2023-02-28T00:06:31;2.20;38.90
21807;DHT22;11065;50.786;7.840;2023-02-28T00:08:59;2.20;38.90
21807;DHT22;11065;50.786;7.840;2023-02-28T00:11:27;2.20;39.00
21807;DHT22;11065;50.786;7.840;2023-02-28T00:13:55;2.20;39.00
21807;DHT22;11065;50.786;7.840;2023-02-28T00:16:23;2.10;39.00
21807;DHT22;11065;50.786;7.840;2023-02-28T00:18:52;2.10;39.00
21807;DHT22;11065;50.786;7.840;2023-02-28T00:21:20;2.10;39.10
21807;DHT22;11065;50.786;7.840;2023-02-28T00:23:49;2.10;39.10
21807;DHT22;11065;50.786;7.840;2023-02-28T00:26:17;2.00;39.10
21807;DHT22;11065;50.786;7.840;2023-02-28T00:28:48;2.00;39.10
21807;DHT22;11065;50.786;7.840;2023-02-28T00:31:16;2.00;39.30
21807;DHT22;11065;50.786;7.840;2023-02-28T00:33:44;2.00;39.30
21807;DHT22;11065;50.786;7.840;2023-02-28T00:36:15;1.90;39.30
21807;DHT22;11065;50.786;7.840;2023-02-28T00:38:43;1.90;39.40
21807;DHT22;11065;50.786;7.840;2023-02-28T00:41:11;1.80;39.40
21807;DHT22;11065;50.786;7.840;2023-02-28T00:43:39;1.80;39.40
21807;DHT22;11065;50.786;7.840;2023-02-28T00:46:10;1.80;39.50
21807;DHT22;11065;50.786;7.840;2023-02-28T00:48:38;1.80;39.50
21807;DHT22;11065;50.786;7.840;2023-02-28T00:51:06;1.70;39.50
21807;DHT22;11065;50.786;7.840;2023-02-28T00:53:35;1.70;39.50
21807;DHT22;11065;50.786;7.840;2023-02-28T00:56:04;1.70;39.60
21807;DHT22;11065;50.786;7.840;2023-02-28T00:58:32;1.70;39.60
21807;DHT22;11065;50.786;7.840;2023-02-28T01:01:00;1.60;39.60
21807;DHT22;11065;50.786;7.840;2023-02-28T01:03:28;1.60;39.60
21807;DHT22;11065;50.786;7.840;2023-02-28T01:05:57;1.60;39.70
21807;DHT22;11065;50.786;7.840;2023-02-28T01:08:26;1.60;39.80
21807;DHT22;11065;50.786;7.840;2023-02-28T01:10:55;1.50;39.80
21807;DHT22;11065;50.786;7.840;2023-02-28T01:13:23;1.50;39.90
21807;DHT22;11065;50.786;7.840;2023-02-28T01:15:55;1.50;40.00
21807;DHT22;11065;50.786;7.840;2023-02-28T01:18:24;1.40;39.90
21807;DHT22;11065;50.786;7.840;2023-02-28T01:20:52;1.40;39.90
21807;DHT22;11065;50.786;7.840;2023-02-28T01:23:22;1.40;39.90
21807;DHT22;11065;50.786;7.840;2023-02-28T01:25:50;1.30;39.90
21807;DHT22;11065;50.786;7.840;2023-02-28T01:28:20;1.30;40.00
21807;DHT22;11065;50.786;7.840;2023-02-28T01:30:50;1.30;40.10
21807;DHT22;11065;50.786;7.840;2023-02-28T01:33:18;1.30;40.10
21807;DHT22;11065;50.786;7.840;2023-02-28T01:35:47;1.30;40.10
21807;DHT22;11065;50.786;7.840;2023-02-28T01:38:15;1.20;40.10
21807;DHT22;11065;50.786;7.840;2023-02-28T01:40:49;1.20;40.20
21807;DHT22;11065;50.786;7.840;2023-02-28T01:43:22;1.20;40.10
21807;DHT22;11065;50.786;7.840;2023-02-28T01:45:52;1.20;40.20
21807;DHT22;11065;50.786;7.840;2023-02-28T01:48:23;1.20;40.20
21807;DHT22;11065;50.786;7.840;2023-02-28T01:50:55;1.20;40.20
21807;DHT22;11065;50.786;7.840;2023-02-28T01:53:31;1.20;40.30
21807;DHT22;11065;50.786;7.840;2023-02-28T01:56:00;1.20;40.40
21807;DHT22;11065;50.786;7.840;2023-02-28T01:58:30;1.20;40.40
21807;DHT22;11065;50.786;7.840;2023-02-28T02:00:58;1.20;40.40
21807;DHT22;11065;50.786;7.840;2023-02-28T02:03:26;1.20;40.50
21807;DHT22;11065;50.786;7.840;2023-02-28T02:05:54;1.20;40.60
21807;DHT22;11065;50.786;7.840;2023-02-28T02:08:24;1.30;40.70
21807;DHT22;11065;50.786;7.840;2023-02-28T02:10:55;1.30;40.70
21807;DHT22;11065;50.786;7.840;2023-02-28T02:13:48;1.30;40.70
21807;DHT22;11065;50.786;7.840;2023-02-28T02:16:38;1.30;41.00
21807;DHT22;11065;50.786;7.840;2023-02-28T02:19:21;1.30;40.90
21807;DHT22;11065;50.786;7.840;2023-02-28T02:22:20;1.40;40.80
21807;DHT22;11065;50.786;7.840;2023-02-28T02:25:08;1.40;40.90
21807;DHT22;11065;50.786;7.840;2023-02-28T02:27:59;1.40;41.10
21807;DHT22;11065;50.786;7.840;2023-02-28T02:30:55;1.40;41.10
21807;DHT22;11065;50.786;7.840;2023-02-28T02:36:33;1.40;40.90
21807;DHT22;11065;50.786;7.840;2023-02-28T02:39:05;1.40;40.70
21807;DHT22;11065;50.786;7.840;2023-02-28T02:41:40;1.40;40.80
21807;DHT22;11065;50.786;7.840;2023-02-28T02:44:19;1.40;40.80
21807;DHT22;11065;50.786;7.840;2023-02-28T02:46:51;1.40;40.80
21807;DHT22;11065;50.786;7.840;2023-02-28T02:49:29;1.40;40.90
21807;DHT22;11065;50.786;7.840;2023-02-28T02:52:04;1.40;41.00
21807;DHT22;11065;50.786;7.840;2023-02-28T02:54:35;1.30;41.00
21807;DHT22;11065;50.786;7.840;2023-02-28T02:57:07;1.30;41.00
21807;DHT22;11065;50.786;7.840;2023-02-28T02:59:38;1.30;41.00
21807;DHT22;11065;50.786;7.840;2023-02-28T03:02:10;1.20;41.00
21807;DHT22;11065;50.786;7.840;2023-02-28T03:04:43;1.20;41.00
21807;DHT22;11065;50.786;7.840;2023-02-28T03:07:14;1.20;41.00
21807;DHT22;11065;50.786;7.840;2023-02-28T03:09:50;1.20;41.00
21807;DHT22;11065;50.786;7.840;2023-02-28T03:12:20;1.10;41.10
21807;DHT22;11065;50.786;7.840;2023-02-28T03:15:05;1.10;41.00
21807;DHT22;11065;50.786;7.840;2023-02-28T03:17:53;1.00;41.10
21807;DHT22;11065;50.786;7.840;2023-02-28T03:20:34;1.00;41.10
21807;DHT22;11065;50.786;7.840;2023-02-28T03:23:15;1.00;41.00
21807;DHT22;11065;50.786;7.840;2023-02-28T03:25:54;1.00;41.30
21807;DHT22;11065;50.786;7.840;2023-02-28T03:28:31;0.90;41.20
21807;DHT22;11065;50.786;7.840;2023-02-28T03:31:06;0.90;41.20
21807;DHT22;11065;50.786;7.840;2023-02-28T03:33:39;0.80;41.10
21807;DHT22;11065;50.786;7.840;2023-02-28T03:36:12;0.80;41.10
21807;DHT22;11065;50.786;7.840;2023-02-28T03:38:44;0.80;41.20
21807;DHT22;11065;50.786;7.840;2023-02-28T03:41:15;0.70;41.20
21807;DHT22;11065;50.786;7.840;2023-02-28T03:43:49;0.70;41.20
21807;DHT22;11065;50.786;7.840;2023-02-28T03:46:21;0.70;41.30
21807;DHT22;11065;50.786;7.840;2023-02-28T03:48:54;0.70;41.40
21807;DHT22;11065;50.786;7.840;2023-02-28T03:51:24;0.60;41.30
21807;DHT22;11065;50.786;7.840;2023-02-28T03:53:58;0.60;41.30
21807;DHT22;11065;50.786;7.840;2023-02-28T03:56:31;0.50;41.40
21807;DHT22;11065;50.786;7.840;2023-02-28T03:59:04;0.50;41.40
21807;DHT22;11065;50.786;7.840;2023-02-28T04:01:36;0.50;41.40
21807;DHT22;11065;50.786;7.840;2023-02-28T04:04:05;0.50;41.40
21807;DHT22;11065;50.786;7.840;2023-02-28T04:06:34;0.40;41.50
21807;DHT22;11065;50.786;7.840;2023-02-28T04:09:05;0.40;41.50
21807;DHT22;11065;50.786;7.840;2023-02-28T04:11:36;0.40;41.60
21807;DHT22;11065;50.786;7.840;2023-02-28T04:14:05;0.40;41.60
21807;DHT22;11065;50.786;7.840;2023-02-28T04:16:36;0.40;41.60
21807;DHT22;11065;50.786;7.840;2023-02-28T04:19:06;0.30;41.60
21807;DHT22;11065;50.786;7.840;2023-02-28T04:21:36;0.30;41.60
21807;DHT22;11065;50.786;7.840;2023-02-28T04:24:08;0.30;41.60
21807;DHT22;11065;50.786;7.840;2023-02-28T04:26:42;0.30;41.60
21807;DHT22;11065;50.786;7.840;2023-02-28T04:29:11;0.30;41.70
21807;DHT22;11065;50.786;7.840;2023-02-28T04:31:40;0.20;41.60
21807;DHT22;11065;50.786;7.840;2023-02-28T04:34:08;0.30;41.70
21807;DHT22;11065;50.786;7.840;2023-02-28T04:36:36;0.20;41.70
21807;DHT22;11065;50.786;7.840;2023-02-28T04:39:04;0.10;41.70
21807;DHT22;11065;50.786;7.840;2023-02-28T04:41:33;0.10;41.70
21807;DHT22;11065;50.786;7.840;2023-02-28T04:44:02;0.10;41.80
21807;DHT22;11065;50.786;7.840;2023-02-28T04:46:30;0.10;41.80
21807;DHT22;11065;50.786;7.840;2023-02-28T04:48:58;0.00;41.70
21807;DHT22;11065;50.786;7.840;2023-02-28T04:51:26;0.00;41.80
21807;DHT22;11065;50.786;7.840;2023-02-28T04:53:56;0.00;41.70
21807;DHT22;11065;50.786;7.840;2023-02-28T04:56:24;0.00;41.80
21807;DHT22;11065;50.786;7.840;2023-02-28T04:58:53;0.00;41.80
21807;DHT22;11065;50.786;7.840;2023-02-28T05:01:24;-0.10;41.90
21807;DHT22;11065;50.786;7.840;2023-02-28T05:03:55;-0.10;41.90
21807;DHT22;11065;50.786;7.840;2023-02-28T05:06:25;-0.10;42.00
21807;DHT22;11065;50.786;7.840;2023-02-28T05:08:53;-0.10;42.00
21807;DHT22;11065;50.786;7.840;2023-02-28T05:11:24;-0.10;41.90
21807;DHT22;11065;50.786;7.840;2023-02-28T05:13:55;-0.10;41.90
21807;DHT22;11065;50.786;7.840;2023-02-28T05:16:22;-0.20;41.90
21807;DHT22;11065;50.786;7.840;2023-02-28T05:18:50;-0.20;41.90
21807;DHT22;11065;50.786;7.840;2023-02-28T05:21:27;-0.20;42.00
21807;DHT22;11065;50.786;7.840;2023-02-28T05:23:57;-0.20;42.00
21807;DHT22;11065;50.786;7.840;2023-02-28T05:26:26;-0.20;42.00
21807;DHT22;11065;50.786;7.840;2023-02-28T05:28:55;-0.30;41.90
21807;DHT22;11065;50.786;7.840;2023-02-28T05:31:23;-0.30;41.90
21807;DHT22;11065;50.786;7.840;2023-02-28T05:33:52;-0.30;42.00
21807;DHT22;11065;50.786;7.840;2023-02-28T05:36:20;-0.30;42.10
21807;DHT22;11065;50.786;7.840;2023-02-28T05:38:49;-0.40;42.00
21807;DHT22;11065;50.786;7.840;2023-02-28T05:41:18;-0.40;42.10
21807;DHT22;11065;50.786;7.840;2023-02-28T05:43:47;-0.40;42.10
21807;DHT22;11065;50.786;7.840;2023-02-28T05:46:17;-0.40;42.10
21807;DHT22;11065;50.786;7.840;2023-02-28T05:48:46;-0.50;42.00
21807;DHT22;11065;50.786;7.840;2023-02-28T05:51:15;-0.50;42.10
21807;DHT22;11065;50.786;7.840;2023-02-28T05:53:44;-0.50;42.10
21807;DHT22;11065;50.786;7.840;2023-02-28T05:56:12;-0.50;42.10
21807;DHT22;11065;50.786;7.840;2023-02-28T05:58:40;-0.50;42.10
21807;DHT22;11065;50.786;7.840;2023-02-28T06:01:35;-0.60;42.10
21807;DHT22;11065;50.786;7.840;2023-02-28T06:04:05;-0.60;42.40
21807;DHT22;11065;50.786;7.840;2023-02-28T06:06:33;-0.60;42.20
21807;DHT22;11065;50.786;7.840;2023-02-28T06:09:03;-0.60;42.10
21807;DHT22;11065;50.786;7.840;2023-02-28T06:11:32;-0.70;42.20
21807;DHT22;11065;50.786;7.840;2023-02-28T06:14:00;-0.70;42.10
21807;DHT22;11065;50.786;7.840;2023-02-28T06:16:32;-0.70;42.20
21807;DHT22;11065;50.786;7.840;2023-02-28T06:19:02;-0.70;42.20
21807;DHT22;11065;50.786;7.840;2023-02-28T06:21:31;-0.70;42.20
21807;DHT22;11065;50.786;7.840;2023-02-28T06:23:59;-0.70;42.30
21807;DHT22;11065;50.786;7.840;2023-02-28T06:26:27;-0.80;42.30
21807;DHT22;11065;50.786;7.840;2023-02-28T06:28:55;-0.80;42.30
21807;DHT22;11065;50.786;7.840;2023-02-28T06:31:23;-0.80;42.20
21807;DHT22;11065;50.786;7.840;2023-02-28T06:33:54;-0.80;42.30
21807;DHT22;11065;50.786;7.840;2023-02-28T06:36:22;-0.80;42.30
21807;DHT22;11065;50.786;7.840;2023-02-28T06:38:50;-0.80;42.40
21807;DHT22;11065;50.786;7.840;2023-02-28T06:41:22;-0.80;42.50
21807;DHT22;11065;50.786;7.840;2023-02-28T06:43:51;-0.80;42.50
21807;DHT22;11065;50.786;7.840;2023-02-28T06:46:19;-0.80;42.50
21807;DHT22;11065;50.786;7.840;2023-02-28T06:48:47;-0.80;42.60
21807;DHT22;11065;50.786;7.840;2023-02-28T06:51:19;-0.80;42.60
21807;DHT22;11065;50.786;7.840;2023-02-28T06:53:49;-0.80;42.60
21807;DHT22;11065;50.786;7.840;2023-02-28T06:56:18;-0.80;42.60
21807;DHT22;11065;50.786;7.840;2023-02-28T06:58:47;-0.80;42.80
21807;DHT22;11065;50.786;7.840;2023-02-28T07:01:16;-0.80;42.70
21807;DHT22;11065;50.786;7.840;2023-02-28T07:03:44;-0.80;42.80
21807;DHT22;11065;50.786;7.840;2023-02-28T07:06:12;-0.80;42.80
21807;DHT22;11065;50.786;7.840;2023-02-28T07:08:42;-0.70;42.90
21807;DHT22;11065;50.786;7.840;2023-02-28T07:11:10;-0.70;43.00
21807;DHT22;11065;50.786;7.840;2023-02-28T07:13:38;-0.60;43.20
21807;DHT22;11065;50.786;7.840;2023-02-28T07:16:09;-0.60;43.20
21807;DHT22;11065;50.786;7.840;2023-02-28T07:18:38;-0.50;43.30
21807;DHT22;11065;50.786;7.840;2023-02-28T07:21:08;-0.40;43.40
21807;DHT22;11065;50.786;7.840;2023-02-28T07:23:38;-0.30;44.00
21807;DHT22;11065;50.786;7.840;2023-02-28T07:26:12;-0.20;43.60
21807;DHT22;11065;50.786;7.840;2023-02-28T07:28:42;-0.10;43.60
21807;DHT22;11065;50.786;7.840;2023-02-28T07:31:10;0.00;43.50
21807;DHT22;11065;50.786;7.840;2023-02-28T07:33:38;0.10;43.50
21807;DHT22;11065;50.786;7.840;2023-02-28T07:36:09;0.20;43.40
21807;DHT22;11065;50.786;7.840;2023-02-28T07:38:41;0.20;43.40
21807;DHT22;11065;50.786;7.840;2023-02-28T07:41:15;0.30;43.40
21807;DHT22;11065;50.786;7.840;2023-02-28T07:43:44;0.40;43.80
21807;DHT22;11065;50.786;7.840;2023-02-28T07:46:13;0.40;43.60
21807;DHT22;11065;50.786;7.840;2023-02-28T07:48:43;0.50;43.50
21807;DHT22;11065;50.786;7.840;2023-02-28T07:51:11;0.50;43.40
21807;DHT22;11065;50.786;7.840;2023-02-28T07:53:39;0.60;43.40
21807;DHT22;11065;50.786;7.840;2023-02-28T07:56:08;0.60;43.40
21807;DHT22;11065;50.786;7.840;2023-02-28T07:58:38;0.60;43.50
21807;DHT22;11065;50.786;7.840;2023-02-28T08:01:07;0.60;43.40
21807;DHT22;11065;50.786;7.840;2023-02-28T08:03:37;0.60;43.30
21807;DHT22;11065;50.786;7.840;2023-02-28T08:06:07;0.60;43.30
21807;DHT22;11065;50.786;7.840;2023-02-28T08:08:35;0.60;43.40
21807;DHT22;11065;50.786;7.840;2023-02-28T08:11:04;0.60;43.40
21807;DHT22;11065;50.786;7.840;2023-02-28T08:13:32;0.70;43.50
21807;DHT22;11065;50.786;7.840;2023-02-28T08:16:02;0.70;43.60
21807;DHT22;11065;50.786;7.840;2023-02-28T08:18:31;0.70;43.60
21807;DHT22;11065;50.786;7.840;2023-02-28T08:21:04;0.70;43.60
21807;DHT22;11065;50.786;7.840;2023-02-28T08:23:33;0.70;43.60
21807;DHT22;11065;50.786;7.840;2023-02-28T08:26:02;0.80;43.70
21807;DHT22;11065;50.786;7.840;2023-02-28T08:28:31;0.80;44.60
21807;DHT22;11065;50.786;7.840;2023-02-28T08:31:00;0.80;44.00
21807;DHT22;11065;50.786;7.840;2023-02-28T08:33:28;0.90;44.10
21807;DHT22;11065;50.786;7.840;2023-02-28T08:35:58;0.90;44.10
21807;DHT22;11065;50.786;7.840;2023-02-28T08:38:26;0.90;43.90
21807;DHT22;11065;50.786;7.840;2023-02-28T08:40:58;1.00;43.80
21807;DHT22;11065;50.786;7.840;2023-02-28T08:43:26;1.10;43.70
21807;DHT22;11065;50.786;7.840;2023-02-28T08:45:55;1.10;44.00
21807;DHT22;11065;50.786;7.840;2023-02-28T08:48:26;1.30;43.60
21807;DHT22;11065;50.786;7.840;2023-02-28T08:50:55;1.40;43.30
21807;DHT22;11065;50.786;7.840;2023-02-28T08:53:33;1.50;43.20
21807;DHT22;11065;50.786;7.840;2023-02-28T08:56:04;1.70;43.20
21807;DHT22;11065;50.786;7.840;2023-02-28T08:58:32;2.10;43.50
21807;DHT22;11065;50.786;7.840;2023-02-28T09:01:06;2.70;44.50
21807;DHT22;11065;50.786;7.840;2023-02-28T09:03:36;3.60;45.90
21807;DHT22;11065;50.786;7.840;2023-02-28T09:06:04;4.80;47.20
21807;DHT22;11065;50.786;7.840;2023-02-28T09:08:32;6.30;48.10
21807;DHT22;11065;50.786;7.840;2023-02-28T09:11:01;7.80;48.50
21807;DHT22;11065;50.786;7.840;2023-02-28T09:13:29;9.50;48.50
21807;DHT22;11065;50.786;7.840;2023-02-28T09:15:59;11.10;48.00
21807;DHT22;11065;50.786;7.840;2023-02-28T09:18:28;12.70;47.10
21807;DHT22;11065;50.786;7.840;2023-02-28T09:20:58;14.20;45.90
21807;DHT22;11065;50.786;7.840;2023-02-28T09:23:26;15.60;44.60
21807;DHT22;11065;50.786;7.840;2023-02-28T09:25:54;16.80;43.20
21807;DHT22;11065;50.786;7.840;2023-02-28T09:28:22;17.80;41.40
21807;DHT22;11065;50.786;7.840;2023-02-28T09:30:52;18.70;40.30
21807;DHT22;11065;50.786;7.840;2023-02-28T09:33:21;19.40;39.00
21807;DHT22;11065;50.786;7.840;2023-02-28T09:35:50;20.10;37.50
21807;DHT22;11065;50.786;7.840;2023-02-28T09:38:20;20.50;36.60
21807;DHT22;11065;50.786;7.840;2023-02-28T09:40:50;21.00;35.60
21807;DHT22;11065;50.786;7.840;2023-02-28T09:43:23;21.40;35.20
21807;DHT22;11065;50.786;7.840;2023-02-28T09:45:54;21.90;34.80
21807;DHT22;11065;50.786;7.840;2023-02-28T09:48:29;22.50;34.50
21807;DHT22;11065;50.786;7.840;2023-02-28T09:51:02;23.00;34.00
21807;DHT22;11065;50.786;7.840;2023-02-28T09:53:34;23.50;33.70
21807;DHT22;11065;50.786;7.840;2023-02-28T09:56:05;24.10;32.90
21807;DHT22;11065;50.786;7.840;2023-02-28T09:58:39;24.60;32.10
21807;DHT22;11065;50.786;7.840;2023-02-28T10:01:17;25.00;31.40
21807;DHT22;11065;50.786;7.840;2023-02-28T10:03:50;25.40;30.90
21807;DHT22;11065;50.786;7.840;2023-02-28T10:06:21;25.70;30.60
21807;DHT22;11065;50.786;7.840;2023-02-28T10:08:57;26.10;30.60
21807;DHT22;11065;50.786;7.840;2023-02-28T10:11:27;26.50;29.60
21807;DHT22;11065;50.786;7.840;2023-02-28T10:13:58;26.90;30.00
21807;DHT22;11065;50.786;7.840;2023-02-28T10:16:31;27.20;29.60
21807;DHT22;11065;50.786;7.840;2023-02-28T10:19:04;27.30;28.80
21807;DHT22;11065;50.786;7.840;2023-02-28T10:21:36;27.40;28.50
21807;DHT22;11065;50.786;7.840;2023-02-28T10:24:16;27.40;27.80
21807;DHT22;11065;50.786;7.840;2023-02-28T10:26:48;27.20;26.90
21807;DHT22;11065;50.786;7.840;2023-02-28T10:29:17;27.20;27.90
21807;DHT22;11065;50.786;7.840;2023-02-28T10:31:45;27.10;27.40
21807;DHT22;11065;50.786;7.840;2023-02-28T10:34:13;27.10;27.50
21807;DHT22;11065;50.786;7.840;2023-02-28T10:36:42;27.20;27.50
21807;DHT22;11065;50.786;7.840;2023-02-28T10:39:35;27.30;27.40
21807;DHT22;11065;50.786;7.840;2023-02-28T10:42:04;27.50;26.60
21807;DHT22;11065;50.786;7.840;2023-02-28T10:44:33;27.70;27.00
21807;DHT22;11065;50.786;7.840;2023-02-28T10:47:01;27.50;26.30
21807;DHT22;11065;50.786;7.840;2023-02-28T10:49:30;27.30;26.10
21807;DHT22;11065;50.786;7.840;2023-02-28T10:51:59;27.10;25.90
21807;DHT22;11065;50.786;7.840;2023-02-28T10:54:31;26.90;25.90
21807;DHT22;11065;50.786;7.840;2023-02-28T10:57:16;26.90;25.90
21807;DHT22;11065;50.786;7.840;2023-02-28T10:59:46;26.90;25.30
21807;DHT22;11065;50.786;7.840;2023-02-28T11:02:32;27.10;26.50
21807;DHT22;11065;50.786;7.840;2023-02-28T11:05:02;27.20;25.80
21807;DHT22;11065;50.786;7.840;2023-02-28T11:07:51;27.40;26.30
21807;DHT22;11065;50.786;7.840;2023-02-28T11:10:22;27.40;25.40
21807;DHT22;11065;50.786;7.840;2023-02-28T11:12:56;27.30;25.00
21807;DHT22;11065;50.786;7.840;2023-02-28T11:15:28;27.00;24.60
21807;DHT22;11065;50.786;7.840;2023-02-28T11:18:00;26.80;24.70
21807;DHT22;11065;50.786;7.840;2023-02-28T11:20:30;26.40;24.40
21807;DHT22;11065;50.786;7.840;2023-02-28T11:23:01;26.20;24.40
21807;DHT22;11065;50.786;7.840;2023-02-28T11:25:32;25.90;24.60
21807;DHT22;11065;50.786;7.840;2023-02-28T11:28:03;25.80;24.80
21807;DHT22;11065;50.786;7.840;2023-02-28T11:30:35;25.90;24.90
21807;DHT22;11065;50.786;7.840;2023-02-28T11:33:25;26.00;24.80
21807;DHT22;11065;50.786;7.840;2023-02-28T11:35:58;26.20;24.50
21807;DHT22;11065;50.786;7.840;2023-02-28T11:38:28;26.30;24.80
21807;DHT22;11065;50.786;7.840;2023-02-28T11:41:05;26.50;25.10
21807;DHT22;11065;50.786;7.840;2023-02-28T11:43:57;26.70;24.50
21807;DHT22;11065;50.786;7.840;2023-02-28T11:46:30;27.00;22.00
21807;DHT22;11065;50.786;7.840;2023-02-28T11:49:07;27.00;23.50
21807;DHT22;11065;50.786;7.840;2023-02-28T11:51:48;27.10;23.80
21807;DHT22;11065;50.786;7.840;2023-02-28T11:54:28;27.30;24.00
21807;DHT22;11065;50.786;7.840;2023-02-28T11:57:03;27.40;23.80
21807;DHT22;11065;50.786;7.840;2023-02-28T11:59:51;27.40;23.60
21807;DHT22;11065;50.786;7.840;2023-02-28T12:02:50;27.30;23.40
21807;DHT22;11065;50.786;7.840;2023-02-28T12:05:28;27.30;23.50
21807;DHT22;11065;50.786;7.840;2023-02-28T12:08:06;27.30;23.60
21807;DHT22;11065;50.786;7.840;2023-02-28T12:10:44;27.30;23.50
21807;DHT22;11065;50.786;7.840;2023-02-28T12:13:23;27.30;23.50
21807;DHT22;11065;50.786;7.840;2023-02-28T12:16:16;27.20;23.30
21807;DHT22;11065;50.786;7.840;2023-02-28T12:19:05;27.10;23.20
21807;DHT22;11065;50.786;7.840;2023-02-28T12:21:46;27.00;23.20
21807;DHT22;11065;50.786;7.840;2023-02-28T12:24:35;26.80;22.90
21807;DHT22;11065;50.786;7.840;2023-02-28T12:27:10;26.40;22.50
21807;DHT22;11065;50.786;7.840;2023-02-28T12:29:45;25.90;22.40
21807;DHT22;11065;50.786;7.840;2023-02-28T12:32:20;25.30;22.20
21807;DHT22;11065;50.786;7.840;2023-02-28T12:34:52;24.80;22.40
21807;DHT22;11065;50.786;7.840;2023-02-28T12:37:27;24.40;22.70
21807;DHT22;11065;50.786;7.840;2023-02-28T12:40:01;24.10;22.80
21807;DHT22;11065;50.786;7.840;2023-02-28T12:42:33;24.00;23.00
21807;DHT22;11065;50.786;7.840;2023-02-28T12:45:10;23.90;23.20
21807;DHT22;11065;50.786;7.840;2023-02-28T12:47:42;23.90;23.20
21807;DHT22;11065;50.786;7.840;2023-02-28T12:50:12;23.80;23.20
21807;DHT22;11065;50.786;7.840;2023-02-28T12:52:45;23.80;23.20
21807;DHT22;11065;50.786;7.840;2023-02-28T12:55:21;23.80;23.20
21807;DHT22;11065;50.786;7.840;2023-02-28T12:57:59;23.70;23.10
21807;DHT22;11065;50.786;7.840;2023-02-28T13:00:33;23.70;23.10
21807;DHT22;11065;50.786;7.840;2023-02-28T13:06:17;23.60;22.90
21807;DHT22;11065;50.786;7.840;2023-02-28T13:09:02;23.60;23.00
21807;DHT22;11065;50.786;7.840;2023-02-28T13:11:33;23.60;23.10
21807;DHT22;11065;50.786;7.840;2023-02-28T13:14:18;23.50;23.20
21807;DHT22;11065;50.786;7.840;2023-02-28T13:17:00;23.50;23.00
21807;DHT22;11065;50.786;7.840;2023-02-28T13:19:32;23.40;23.00
21807;DHT22;11065;50.786;7.840;2023-02-28T13:22:01;23.40;23.10
21807;DHT22;11065;50.786;7.840;2023-02-28T13:24:45;23.30;23.30
21807;DHT22;11065;50.786;7.840;2023-02-28T13:27:25;23.20;23.00
21807;DHT22;11065;50.786;7.840;2023-02-28T13:30:00;23.20;23.40
21807;DHT22;11065;50.786;7.840;2023-02-28T13:32:34;23.10;23.30
21807;DHT22;11065;50.786;7.840;2023-02-28T13:35:37;23.10;23.10
21807;DHT22;11065;50.786;7.840;2023-02-28T13:38:32;23.00;22.90
21807;DHT22;11065;50.786;7.840;2023-02-28T13:44:08;22.90;23.20
21807;DHT22;11065;50.786;7.840;2023-02-28T13:49:45;22.70;23.00
21807;DHT22;11065;50.786;7.840;2023-02-28T13:52:18;22.60;23.40
21807;DHT22;11065;50.786;7.840;2023-02-28T13:55:19;22.50;23.30
21807;DHT22;11065;50.786;7.840;2023-02-28T13:58:08;22.50;23.30
21807;DHT22;11065;50.786;7.840;2023-02-28T14:01:02;22.40;23.10
21807;DHT22;11065;50.786;7.840;2023-02-28T14:03:53;22.40;23.10
21807;DHT22;11065;50.786;7.840;2023-02-28T14:06:28;22.40;23.10
21807;DHT22;11065;50.786;7.840;2023-02-28T14:09:01;22.30;23.40
21807;DHT22;11065;50.786;7.840;2023-02-28T14:11:32;22.30;23.30
21807;DHT22;11065;50.786;7.840;2023-02-28T14:14:02;22.20;23.30
21807;DHT22;11065;50.786;7.840;2023-02-28T14:16:39;22.20;23.20
21807;DHT22;11065;50.786;7.840;2023-02-28T14:19:12;22.10;23.00
21807;DHT22;11065;50.786;7.840;2023-02-28T14:21:58;22.10;23.20
21807;DHT22;11065;50.786;7.840;2023-02-28T14:24:57;22.00;23.10
21807;DHT22;11065;50.786;7.840;2023-02-28T14:27:36;22.00;23.00
21807;DHT22;11065;50.786;7.840;2023-02-28T14:30:37;21.90;23.10
21807;DHT22;11065;50.786;7.840;2023-02-28T14:33:27;21.80;23.00
21807;DHT22;11065;50.786;7.840;2023-02-28T14:36:09;21.70;23.00
21807;DHT22;11065;50.786;7.840;2023-02-28T14:38:45;21.60;23.10
21807;DHT22;11065;50.786;7.840;2023-02-28T14:41:18;21.50;23.10
21807;DHT22;11065;50.786;7.840;2023-02-28T14:43:54;21.40;23.00
21807;DHT22;11065;50.786;7.840;2023-02-28T14:46:25;21.40;23.10
21807;DHT22;11065;50.786;7.840;2023-02-28T14:48:55;21.20;23.10
21807;DHT22;11065;50.786;7.840;2023-02-28T14:51:23;21.10;23.10
21807;DHT22;11065;50.786;7.840;2023-02-28T14:54:00;21.10;23.10
21807;DHT22;11065;50.786;7.840;2023-02-28T14:56:34;20.90;23.00
21807;DHT22;11065;50.786;7.840;2023-02-28T14:59:03;20.80;23.00
21807;DHT22;11065;50.786;7.840;2023-02-28T15:01:32;20.70;23.10
21807;DHT22;11065;50.786;7.840;2023-02-28T15:04:03;20.60;23.10
21807;DHT22;11065;50.786;7.840;2023-02-28T15:06:32;20.50;23.10
21807;DHT22;11065;50.786;7.840;2023-02-28T15:09:09;20.40;23.10
21807;DHT22;11065;50.786;7.840;2023-02-28T15:11:39;20.30;23.00
21807;DHT22;11065;50.786;7.840;2023-02-28T15:14:15;20.20;23.20
21807;DHT22;11065;50.786;7.840;2023-02-28T15:16:46;20.00;23.20
21807;DHT22;11065;50.786;7.840;2023-02-28T15:19:20;20.00;23.20
21807;DHT22;11065;50.786;7.840;2023-02-28T15:21:53;19.90;23.20
21807;DHT22;11065;50.786;7.840;2023-02-28T15:24:31;19.80;23.30
21807;DHT22;11065;50.786;7.840;2023-02-28T15:27:05;19.70;23.20
21807;DHT22;11065;50.786;7.840;2023-02-28T15:29:43;19.50;23.20
21807;DHT22;11065;50.786;7.840;2023-02-28T15:32:25;19.40;23.20
21807;DHT22;11065;50.786;7.840;2023-02-28T15:34:54;19.30;23.20
21807;DHT22;11065;50.786;7.840;2023-02-28T15:37:37;19.20;23.70
21807;DHT22;11065;50.786;7.840;2023-02-28T15:40:14;19.10;23.30
21807;DHT22;11065;50.786;7.840;2023-02-28T15:42:43;19.00;23.50
21807;DHT22;11065;50.786;7.840;2023-02-28T15:45:32;18.90;23.50
21807;DHT22;11065;50.786;7.840;2023-02-28T15:48:01;18.80;23.40
21807;DHT22;11065;50.786;7.840;2023-02-28T15:50:40;18.70;23.50
21807;DHT22;11065;50.786;7.840;2023-02-28T15:53:14;18.60;23.40
21807;DHT22;11065;50.786;7.840;2023-02-28T15:55:44;18.50;23.50
21807;DHT22;11065;50.786;7.840;2023-02-28T15:58:21;18.40;23.50
21807;DHT22;11065;50.786;7.840;2023-02-28T16:01:06;18.30;23.50
21807;DHT22;11065;50.786;7.840;2023-02-28T16:03:44;18.20;23.50
21807;DHT22;11065;50.786;7.840;2023-02-28T16:06:33;18.00;23.40
21807;DHT22;11065;50.786;7.840;2023-02-28T16:09:03;17.90;23.50
21807;DHT22;11065;50.786;7.840;2023-02-28T16:11:36;17.70;23.40
21807;DHT22;11065;50.786;7.840;2023-02-28T16:14:05;17.50;23.40
21807;DHT22;11065;50.786;7.840;2023-02-28T16:16:33;17.30;23.40
21807;DHT22;11065;50.786;7.840;2023-02-28T16:19:02;17.00;23.40
21807;DHT22;11065;50.786;7.840;2023-02-28T16:21:31;16.80;23.40
21807;DHT22;11065;50.786;7.840;2023-02-28T16:24:00;16.50;23.50
21807;DHT22;11065;50.786;7.840;2023-02-28T16:26:28;16.20;23.50